Time;durP1;ratioP1;P1;durP2;ratioP2;P2;SDS_P1;SDS_P2;PMS_P1;PMS_P2;Temp;Humidity;BMP_temperature;BMP_pressure;BME280_temperature;BME280_humidity;BME280_pressure;Samples;Min_cycle;Max_cycle;Signal;HPM_P1;HPM_P2
2022/05/03 00:02:17;;;;;;;8.00;6.10;;;16.00;99.90;;;;;;5081898;28;20216;-68
2022/05/03 00:05:07;;;;;;;9.07;6.70;;;16.00;99.90;;;;;;5076599;28;20225;-68
2022/05/03 00:07:55;;;;;;;7.70;6.17;;;16.00;99.90;;;;;;5076232;28;20202;-69
2022/05/03 00:10:50;;;;;;;8.03;6.90;;;15.90;99.90;;;;;;5070054;28;20209;-68
2022/05/03 00:13:28;;;;;;;9.53;6.53;;;15.80;99.90;;;;;;5077414;28;20189;-68
2022/05/03 00:15:57;;;;;;;9.50;6.40;;;15.80;99.90;;;;;;5077956;28;20283;-69
2022/05/03 00:18:24;;;;;;;7.80;6.43;;;15.80;99.90;;;;;;5079009;28;20197;-68
2022/05/03 00:20:51;;;;;;;10.43;6.30;;;15.80;99.90;;;;;;5074821;28;20197;-69
2022/05/03 00:23:18;;;;;;;8.13;6.13;;;15.80;99.90;;;;;;5076243;28;20197;-68
2022/05/03 00:25:45;;;;;;;8.07;6.27;;;15.90;99.90;;;;;;5077793;28;20218;-68
2022/05/03 00:28:13;;;;;;;8.70;6.30;;;15.80;99.90;;;;;;5077541;28;20756;-69
2022/05/03 00:30:40;;;;;;;7.57;5.57;;;15.80;99.90;;;;;;5076086;28;20295;-68
2022/05/03 00:33:09;;;;;;;8.10;6.53;;;15.70;99.90;;;;;;5075579;28;20198;-68
2022/05/03 00:35:36;;;;;;;7.17;5.73;;;15.50;99.90;;;;;;5077084;28;20226;-69
2022/05/03 00:38:03;;;;;;;7.67;6.33;;;15.40;99.90;;;;;;5075396;28;20480;-68
2022/05/03 00:40:33;;;;;;;7.43;5.90;;;15.40;99.90;;;;;;5071104;28;20202;-67
2022/05/03 00:43:23;;;;;;;6.80;5.50;;;15.40;99.90;;;;;;5080715;28;20213;-67
2022/05/03 00:46:01;;;;;;;6.07;5.37;;;15.30;99.90;;;;;;5077137;28;20218;-67
2022/05/03 00:48:55;;;;;;;8.73;5.93;;;15.20;99.90;;;;;;5077953;28;20205;-67
2022/05/03 00:51:34;;;;;;;7.47;5.80;;;15.10;99.90;;;;;;5073655;28;20194;-67
2022/05/03 00:54:10;;;;;;;7.10;5.97;;;15.10;99.90;;;;;;5083021;28;20812;-67
2022/05/03 00:57:07;;;;;;;6.80;5.83;;;15.00;99.90;;;;;;5069862;28;20201;-67
2022/05/03 00:59:53;;;;;;;6.27;5.40;;;15.00;99.90;;;;;;5075112;28;20200;-67
2022/05/03 01:02:46;;;;;;;8.43;5.87;;;14.90;99.90;;;;;;5075072;28;20194;-67
2022/05/03 01:05:19;;;;;;;8.13;6.80;;;14.90;99.90;;;;;;5080687;28;20229;-67
2022/05/03 01:08:04;;;;;;;8.93;6.50;;;14.80;99.90;;;;;;5077581;28;20198;-67
2022/05/03 01:10:46;;;;;;;11.53;6.67;;;14.80;99.90;;;;;;5071916;28;20262;-67
2022/05/03 01:13:32;;;;;;;9.43;6.63;;;14.90;99.90;;;;;;5075344;28;20778;-67
2022/05/03 01:16:05;;;;;;;9.77;7.13;;;14.70;99.90;;;;;;5071696;28;20201;-66
2022/05/03 01:18:52;;;;;;;7.40;6.10;;;14.70;99.90;;;;;;5072765;28;20678;-67
2022/05/03 01:21:43;;;;;;;8.57;6.77;;;14.60;99.90;;;;;;5074363;28;20217;-67
2022/05/03 01:24:12;;;;;;;8.83;6.30;;;14.70;99.90;;;;;;5070696;28;20218;-67
2022/05/03 01:26:57;;;;;;;11.13;7.40;;;14.70;99.90;;;;;;5075272;28;20198;-67
2022/05/03 01:29:30;;;;;;;9.10;7.20;;;14.80;99.90;;;;;;5076484;28;20189;-66
2022/05/03 01:31:58;;;;;;;11.87;7.10;;;14.70;99.90;;;;;;5080180;28;20196;-67
2022/05/03 01:34:26;;;;;;;9.60;6.83;;;14.70;99.90;;;;;;5078905;28;20214;-68
2022/05/03 01:37:11;;;;;;;8.63;6.90;;;14.70;99.90;;;;;;5079877;28;20190;-69
2022/05/03 01:39:56;;;;;;;8.00;6.70;;;14.60;99.90;;;;;;5081564;28;20570;-68
2022/05/03 01:42:32;;;;;;;11.27;7.50;;;14.60;99.90;;;;;;5077875;28;20698;-68
2022/05/03 01:45:03;;;;;;;9.43;7.10;;;14.50;99.90;;;;;;5082367;28;20220;-68
2022/05/03 01:47:59;;;;;;;9.87;7.13;;;14.50;99.90;;;;;;5075105;28;20201;-68
2022/05/03 01:50:57;;;;;;;9.47;6.73;;;14.50;99.90;;;;;;5071188;28;20669;-68
2022/05/03 01:53:36;;;;;;;8.93;6.30;;;14.60;99.90;;;;;;5075201;28;20215;-68
2022/05/03 01:56:26;;;;;;;10.03;7.17;;;14.60;99.90;;;;;;5074853;28;20219;-68
2022/05/03 01:59:11;;;;;;;11.00;7.17;;;14.60;99.90;;;;;;5081039;28;20205;-68
2022/05/03 02:01:41;;;;;;;8.90;6.63;;;14.60;99.90;;;;;;5080894;28;20195;-68
2022/05/03 02:04:43;;;;;;;7.73;6.73;;;14.70;99.90;;;;;;5082514;28;20218;-69
2022/05/03 02:07:16;;;;;;;9.17;7.13;;;14.60;99.90;;;;;;5080731;28;20198;-68
2022/05/03 02:09:45;;;;;;;9.60;6.67;;;14.60;99.90;;;;;;5072775;28;20221;-68
2022/05/03 02:12:18;;;;;;;11.17;7.47;;;14.50;99.90;;;;;;5073856;28;20193;-68
2022/05/03 02:14:53;;;;;;;9.10;7.10;;;14.40;99.90;;;;;;5076298;28;20220;-68
2022/05/03 02:17:30;;;;;;;8.57;6.80;;;14.40;99.90;;;;;;5078542;28;20202;-68
2022/05/03 02:20:28;;;;;;;8.70;7.10;;;14.30;99.90;;;;;;5081673;28;20189;-68
2022/05/03 02:23:30;;;;;;;9.37;7.50;;;14.50;99.90;;;;;;5075261;28;20190;-68
2022/05/03 02:26:36;;;;;;;8.77;6.93;;;14.60;99.90;;;;;;5062564;28;20216;-68
2022/05/03 02:29:09;;;;;;;9.40;7.50;;;14.60;99.90;;;;;;5067347;28;20202;-68
2022/05/03 02:31:43;;;;;;;9.73;7.37;;;14.60;99.90;;;;;;5072372;28;20194;-68
2022/05/03 02:34:18;;;;;;;12.63;7.10;;;14.50;99.90;;;;;;5081752;28;20220;-68
2022/05/03 02:37:12;;;;;;;9.43;6.63;;;14.50;99.90;;;;;;5079362;28;20202;-69
2022/05/03 02:39:54;;;;;;;9.23;7.17;;;14.40;99.90;;;;;;5079575;28;20201;-68
2022/05/03 02:42:21;;;;;;;10.40;7.80;;;14.40;99.90;;;;;;5075719;28;20196;-68
2022/05/03 02:44:48;;;;;;;10.67;7.33;;;14.40;99.90;;;;;;5075727;28;20228;-68
2022/05/03 02:47:31;;;;;;;14.07;7.20;;;14.40;99.90;;;;;;5067708;28;20199;-69
2022/05/03 02:50:06;;;;;;;10.37;7.37;;;14.50;99.90;;;;;;5079104;28;20681;-69
2022/05/03 02:52:56;;;;;;;8.57;7.30;;;14.40;99.90;;;;;;5088688;28;20208;-70
2022/05/03 02:55:33;;;;;;;9.83;7.57;;;14.40;99.90;;;;;;5081520;28;20702;-68
2022/05/03 02:58:06;;;;;;;10.23;7.47;;;14.40;99.90;;;;;;5090480;28;20567;-70
2022/05/03 03:03:50;;;;;;;8.80;7.13;;;14.30;99.90;;;;;;5073976;28;20707;-70
2022/05/03 03:06:22;;;;;;;10.23;7.70;;;14.20;99.90;;;;;;5076692;28;20686;-69
2022/05/03 03:08:53;;;;;;;12.03;7.43;;;14.10;99.90;;;;;;5079691;28;20222;-70
2022/05/03 03:11:42;;;;;;;8.53;7.57;;;14.20;99.90;;;;;;5079249;28;20215;-69
2022/05/03 03:14:35;;;;;;;11.57;7.97;;;14.10;99.90;;;;;;5086012;28;20217;-70
2022/05/03 03:17:09;;;;;;;8.77;7.00;;;14.20;99.90;;;;;;5079063;28;20293;-70
2022/05/03 03:19:57;;;;;;;9.40;7.23;;;14.10;99.90;;;;;;5080040;28;20195;-69
2022/05/03 03:22:29;;;;;;;15.17;7.77;;;14.10;99.90;;;;;;5076073;28;20654;-69
2022/05/03 03:24:57;;;;;;;10.87;7.90;;;14.00;99.90;;;;;;5088364;28;20225;-68
2022/05/03 03:27:27;;;;;;;10.07;7.90;;;14.10;99.90;;;;;;5085669;28;20204;-69
2022/05/03 03:29:56;;;;;;;10.77;7.63;;;14.20;99.90;;;;;;5080728;28;20197;-70
2022/05/03 03:32:25;;;;;;;12.90;7.37;;;14.10;99.90;;;;;;5076088;28;20192;-69
2022/05/03 03:34:56;;;;;;;11.47;7.43;;;14.10;99.90;;;;;;5088099;28;20602;-69
2022/05/03 03:37:25;;;;;;;10.00;7.60;;;14.00;99.90;;;;;;5082622;28;20203;-68
2022/05/03 03:39:51;;;;;;;13.37;7.97;;;14.10;99.90;;;;;;5078745;28;20199;-70
2022/05/03 03:42:19;;;;;;;10.47;7.73;;;14.20;99.90;;;;;;5077268;28;20212;-68
2022/05/03 03:44:46;;;;;;;10.47;7.97;;;14.10;99.90;;;;;;5078165;28;20243;-69
2022/05/03 03:47:15;;;;;;;12.33;7.80;;;14.10;99.90;;;;;;5073421;28;20201;-69
2022/05/03 03:49:42;;;;;;;10.13;7.67;;;14.10;99.90;;;;;;5069509;28;20197;-69
2022/05/03 03:52:10;;;;;;;9.83;7.47;;;14.10;99.90;;;;;;5078406;28;20215;-68
2022/05/03 03:54:40;;;;;;;10.83;8.30;;;14.00;99.90;;;;;;5071009;28;20218;-69
2022/05/03 03:57:07;;;;;;;9.77;7.63;;;13.90;99.90;;;;;;5080351;28;20196;-69
2022/05/03 03:59:36;;;;;;;8.87;7.57;;;14.00;99.90;;;;;;5081622;28;20665;-69
2022/05/03 04:02:03;;;;;;;9.60;7.43;;;14.00;99.90;;;;;;5070611;28;20663;-69
2022/05/03 04:04:32;;;;;;;10.40;7.60;;;14.00;99.90;;;;;;5077334;28;20645;-69
2022/05/03 04:06:59;;;;;;;10.90;7.87;;;14.10;99.90;;;;;;5078028;28;20217;-69
2022/05/03 04:09:27;;;;;;;11.70;7.83;;;14.10;99.90;;;;;;5075396;28;20207;-68
2022/05/03 04:11:54;;;;;;;10.60;7.63;;;14.20;99.90;;;;;;5081730;28;20196;-69
2022/05/03 04:14:21;;;;;;;11.97;7.83;;;14.20;99.90;;;;;;5082836;28;20522;-67
2022/05/03 04:16:48;;;;;;;9.10;7.53;;;14.20;99.90;;;;;;5071575;28;20754;-69
2022/05/03 04:19:14;;;;;;;10.23;8.13;;;14.10;99.90;;;;;;5082381;28;20198;-68
2022/05/03 04:21:41;;;;;;;11.37;8.03;;;14.10;99.90;;;;;;5071467;28;20227;-69
2022/05/03 04:24:08;;;;;;;12.30;8.00;;;14.20;99.90;;;;;;5072764;28;20567;-68
2022/05/03 04:26:35;;;;;;;11.00;8.27;;;14.20;99.90;;;;;;5076066;28;20233;-68
2022/05/03 04:29:03;;;;;;;14.10;8.23;;;14.20;99.90;;;;;;5070064;28;20208;-68
2022/05/03 04:31:34;;;;;;;10.87;7.67;;;14.20;99.90;;;;;;5072634;28;20199;-68
2022/05/03 04:34:03;;;;;;;11.33;8.37;;;14.10;99.90;;;;;;5077998;28;20219;-68
2022/05/03 04:36:35;;;;;;;11.53;7.93;;;14.10;99.90;;;;;;5082099;28;20199;-69
2022/05/03 04:39:03;;;;;;;8.27;7.10;;;14.10;99.90;;;;;;5078281;28;20203;-67
2022/05/03 04:41:31;;;;;;;12.97;8.50;;;14.20;99.90;;;;;;5075184;28;20682;-68
2022/05/03 04:43:58;;;;;;;10.33;7.87;;;14.20;99.90;;;;;;5073106;28;20218;-68
2022/05/03 04:46:25;;;;;;;12.50;8.20;;;14.10;99.90;;;;;;5071622;28;20231;-69
2022/05/03 04:48:51;;;;;;;9.60;7.87;;;14.20;99.90;;;;;;5073019;28;20616;-67
2022/05/03 04:51:21;;;;;;;10.53;7.87;;;14.20;99.90;;;;;;5069686;28;20190;-69
2022/05/03 04:53:48;;;;;;;12.67;8.50;;;14.20;99.90;;;;;;5073966;28;20216;-68
2022/05/03 04:56:20;;;;;;;10.77;8.67;;;14.20;99.90;;;;;;5069674;28;20208;-68
2022/05/03 04:58:51;;;;;;;13.70;8.20;;;14.20;99.90;;;;;;5070106;28;20228;-69
2022/05/03 05:01:19;;;;;;;10.40;7.73;;;14.30;99.90;;;;;;5075605;28;20194;-68
2022/05/03 05:03:46;;;;;;;10.73;8.37;;;14.30;99.90;;;;;;5069727;28;20235;-67
2022/05/03 05:06:13;;;;;;;11.60;8.43;;;14.30;99.90;;;;;;5072726;28;20225;-68
2022/05/03 05:08:41;;;;;;;12.23;7.73;;;14.40;99.90;;;;;;5071112;28;20209;-69
2022/05/03 05:11:09;;;;;;;12.03;7.80;;;14.40;99.90;;;;;;5071686;28;20200;-67
2022/05/03 05:13:36;;;;;;;10.87;7.57;;;14.50;99.90;;;;;;5068915;28;20193;-66
2022/05/03 05:16:04;;;;;;;10.57;7.43;;;14.50;99.90;;;;;;5074019;28;20681;-66
2022/05/03 05:18:31;;;;;;;12.10;8.30;;;14.50;99.90;;;;;;5066793;28;20740;-66
2022/05/03 05:20:58;;;;;;;11.23;7.80;;;14.60;99.90;;;;;;5079236;28;20197;-66
2022/05/03 05:23:27;;;;;;;8.67;7.30;;;14.60;99.90;;;;;;5069322;28;20249;-66
2022/05/03 05:25:54;;;;;;;11.10;7.57;;;14.60;99.90;;;;;;5070035;28;20211;-67
2022/05/03 05:28:22;;;;;;;9.90;7.77;;;14.60;99.90;;;;;;5069169;28;20186;-66
2022/05/03 05:30:51;;;;;;;12.77;7.70;;;14.60;99.90;;;;;;5077771;28;20208;-66
2022/05/03 05:33:20;;;;;;;11.37;7.77;;;14.60;99.90;;;;;;5070317;28;20273;-65
2022/05/03 05:35:48;;;;;;;10.93;7.33;;;14.70;99.90;;;;;;5068982;28;20207;-65
2022/05/03 05:38:17;;;;;;;13.07;8.20;;;14.70;99.90;;;;;;5070501;28;20687;-65
2022/05/03 05:40:46;;;;;;;12.17;7.77;;;14.80;99.90;;;;;;5070490;28;20212;-65
2022/05/03 05:43:13;;;;;;;12.30;8.43;;;14.80;99.90;;;;;;5071185;28;20253;-65
2022/05/03 05:45:40;;;;;;;10.53;7.93;;;14.70;99.90;;;;;;5071982;28;20217;-65
2022/05/03 05:48:08;;;;;;;10.53;8.00;;;14.80;99.90;;;;;;5079486;28;20189;-66
2022/05/03 05:50:36;;;;;;;12.43;8.13;;;14.80;99.90;;;;;;5071440;28;20217;-67
2022/05/03 05:55:48;;;;;;;11.97;7.83;;;15.00;99.90;;;;;;5074741;28;20197;-67
2022/05/03 05:58:15;;;;;;;10.63;7.63;;;15.00;99.90;;;;;;5077823;28;20206;-67
2022/05/03 06:00:42;;;;;;;12.90;8.00;;;15.00;99.90;;;;;;5071263;28;20204;-68
2022/05/03 06:03:08;;;;;;;10.17;7.73;;;15.10;99.90;;;;;;5071597;28;20201;-68
2022/05/03 06:05:37;;;;;;;12.00;7.97;;;15.30;99.90;;;;;;5075174;28;20589;-68
2022/05/03 06:08:04;;;;;;;10.93;7.30;;;15.20;99.90;;;;;;5083080;28;20292;-67
2022/05/03 06:10:30;;;;;;;12.13;7.67;;;15.40;99.90;;;;;;5080384;28;20539;-68
2022/05/03 06:12:59;;;;;;;10.03;7.53;;;15.50;99.90;;;;;;5083741;28;20197;-68
2022/05/03 06:15:25;;;;;;;11.20;7.97;;;15.50;99.90;;;;;;5075585;28;20576;-68
2022/05/03 06:17:53;;;;;;;12.67;7.97;;;15.50;99.90;;;;;;5075053;28;20197;-68
2022/05/03 06:20:19;;;;;;;11.00;7.90;;;15.70;99.90;;;;;;5083011;28;20190;-68
2022/05/03 06:22:46;;;;;;;11.43;7.27;;;15.80;99.90;;;;;;5078778;28;20193;-68
2022/05/03 06:25:13;;;;;;;9.77;7.37;;;15.90;99.90;;;;;;5076052;28;20210;-68
2022/05/03 06:27:40;;;;;;;10.73;7.77;;;16.10;99.90;;;;;;5085019;28;20218;-68
2022/05/03 06:30:08;;;;;;;10.13;7.43;;;16.30;99.90;;;;;;5086462;28;20285;-68
2022/05/03 06:32:36;;;;;;;10.30;7.77;;;16.30;99.90;;;;;;5079506;28;20190;-68
2022/05/03 06:35:04;;;;;;;9.97;7.20;;;16.20;99.90;;;;;;5088767;28;20232;-68
2022/05/03 06:37:39;;;;;;;10.00;7.27;;;16.60;99.90;;;;;;5086146;28;20201;-68
2022/05/03 06:40:10;;;;;;;9.20;7.00;;;16.80;99.90;;;;;;5080049;28;20204;-68
2022/05/03 06:42:40;;;;;;;9.70;7.20;;;16.90;99.90;;;;;;5083522;28;20577;-68
2022/05/03 06:45:09;;;;;;;11.30;7.37;;;17.00;99.90;;;;;;5072985;28;20980;-68
2022/05/03 06:47:42;;;;;;;11.87;7.00;;;17.00;99.90;;;;;;5075114;28;20220;-68
2022/05/03 06:50:09;;;;;;;9.93;7.80;;;17.10;99.90;;;;;;5077548;28;20656;-68
2022/05/03 06:52:36;;;;;;;10.53;7.30;;;17.40;99.90;;;;;;5075151;28;20198;-69
2022/05/03 06:55:03;;;;;;;11.00;7.33;;;17.30;99.90;;;;;;5082627;28;20225;-68
2022/05/03 06:57:30;;;;;;;11.13;7.40;;;17.40;99.90;;;;;;5075886;28;20672;-68
2022/05/03 07:00:01;;;;;;;10.33;6.87;;;17.50;99.90;;;;;;5072019;28;20220;-69
2022/05/03 07:02:31;;;;;;;10.27;6.87;;;17.60;99.90;;;;;;5075084;28;20697;-66
2022/05/03 07:05:00;;;;;;;11.43;7.70;;;17.90;99.90;;;;;;5078844;28;20210;-67
2022/05/03 07:07:30;;;;;;;9.80;7.23;;;18.20;99.90;;;;;;5080429;28;20226;-68
2022/05/03 07:09:59;;;;;;;10.30;6.93;;;18.40;99.90;;;;;;5073342;28;20233;-70
2022/05/03 07:12:26;;;;;;;10.73;6.87;;;18.50;99.90;;;;;;5071346;28;20558;-68
2022/05/03 07:15:07;;;;;;;8.70;6.97;;;18.50;99.90;;;;;;5076772;28;20293;-71
2022/05/03 07:23:06;;;;;;;9.23;7.20;;;18.30;99.90;;;;;;5071488;28;20208;-70
2022/05/03 07:25:33;;;;;;;9.93;7.33;;;18.30;99.90;;;;;;5075621;28;20225;-69
2022/05/03 07:27:59;;;;;;;9.93;7.30;;;18.40;99.90;;;;;;5072732;28;20199;-70
2022/05/03 07:30:26;;;;;;;11.20;6.60;;;18.70;99.90;;;;;;5077921;28;20202;-71
2022/05/03 07:32:53;;;;;;;10.70;7.27;;;18.80;99.90;;;;;;5071700;28;20206;-70
2022/05/03 07:35:20;;;;;;;11.00;7.33;;;19.10;99.90;;;;;;5074028;28;20225;-69
2022/05/03 07:37:47;;;;;;;10.33;7.30;;;19.30;99.90;;;;;;5070858;28;20198;-70
2022/05/03 07:40:13;;;;;;;12.00;6.77;;;19.50;99.90;;;;;;5080869;28;20187;-68
2022/05/03 07:42:40;;;;;;;10.98;6.65;;;19.80;99.90;;;;;;5081537;28;20189;-70
2022/05/03 07:45:08;;;;;;;11.15;6.63;;;20.30;99.90;;;;;;5076564;28;20612;-71
2022/05/03 07:47:35;;;;;;;9.70;6.63;;;20.50;99.90;;;;;;5079377;28;20225;-69
2022/05/03 07:50:03;;;;;;;9.00;6.28;;;20.90;99.90;;;;;;5075150;28;20196;-70
2022/05/03 07:52:30;;;;;;;8.95;6.40;;;21.30;99.90;;;;;;5073143;28;20219;-71
2022/05/03 07:54:57;;;;;;;8.95;6.30;;;21.20;99.90;;;;;;5071913;28;20965;-71
2022/05/03 07:57:24;;;;;;;9.37;6.67;;;20.70;99.90;;;;;;5071698;28;20653;-71
2022/05/03 07:59:54;;;;;;;10.67;6.87;;;20.40;99.90;;;;;;5073050;28;20198;-71
2022/05/03 08:02:22;;;;;;;10.85;7.03;;;20.20;99.90;;;;;;5072003;28;20202;-66
2022/05/03 08:04:50;;;;;;;8.90;6.20;;;20.60;99.90;;;;;;5072348;28;20309;-65
2022/05/03 08:07:18;;;;;;;8.80;6.90;;;20.70;99.90;;;;;;5074462;28;20730;-66
2022/05/03 08:09:45;;;;;;;9.05;6.25;;;20.40;99.90;;;;;;5073837;28;20201;-66
2022/05/03 08:12:13;;;;;;;6.88;6.18;;;20.00;99.90;;;;;;5077989;28;20528;-65
2022/05/03 08:14:40;;;;;;;13.95;6.93;;;20.10;99.90;;;;;;5073551;28;20210;-65
2022/05/03 08:17:07;;;;;;;9.52;6.38;;;20.30;99.90;;;;;;5078097;28;22016;-66
2022/05/03 08:19:35;;;;;;;13.10;6.93;;;20.50;99.90;;;;;;5074922;28;20201;-65
2022/05/03 08:22:02;;;;;;;8.63;6.18;;;20.40;99.90;;;;;;5073040;28;20212;-66
2022/05/03 08:24:29;;;;;;;7.50;6.30;;;20.20;99.90;;;;;;5076940;28;20590;-67
2022/05/03 08:26:55;;;;;;;8.57;6.28;;;20.40;99.90;;;;;;5072066;28;20229;-65
2022/05/03 08:29:23;;;;;;;8.30;6.22;;;20.60;99.90;;;;;;5072680;28;20389;-67
2022/05/03 08:31:49;;;;;;;8.90;6.82;;;21.00;99.90;;;;;;5077966;28;20194;-66
2022/05/03 08:34:16;;;;;;;11.18;6.25;;;21.50;99.90;;;;;;5072180;28;20209;-68
2022/05/03 08:42:01;;;;;;;9.65;6.82;;;21.60;99.90;;;;;;5072370;28;20209;-69
2022/05/03 08:42:17;;;;;;;8.63;5.97;;;21.70;99.90;;;;;;5064848;28;20194;-66
2022/05/03 08:44:44;;;;;;;8.48;6.50;;;22.00;99.90;;;;;;5071423;28;20236;-67
2022/05/03 08:47:11;;;;;;;7.68;6.47;;;22.30;99.90;;;;;;5074756;28;20241;-67
2022/05/03 08:50:03;;;;;;;10.00;6.88;;;22.20;99.90;;;;;;5074753;28;20280;-68
2022/05/03 08:52:33;;;;;;;8.43;6.35;;;22.10;99.90;;;;;;5074143;28;20190;-70
2022/05/03 08:55:01;;;;;;;10.70;6.20;;;22.50;99.90;;;;;;5070467;28;20234;-70
2022/05/03 08:57:28;;;;;;;9.52;6.07;;;22.70;99.90;;;;;;5074811;28;20201;-70
2022/05/03 08:59:56;;;;;;;8.13;5.90;;;23.00;99.90;;;;;;5074312;28;20276;-70
2022/05/03 09:02:23;;;;;;;9.63;6.45;;;23.20;99.90;;;;;;5071450;28;20206;-70
2022/05/03 09:04:50;;;;;;;8.00;5.97;;;23.30;99.90;;;;;;5070767;28;20293;-70
2022/05/03 09:07:25;;;;;;;10.10;6.50;;;22.70;99.90;;;;;;5069554;28;20217;-70
2022/05/03 09:09:53;;;;;;;8.70;6.50;;;23.00;99.90;;;;;;5068888;28;20617;-69
2022/05/03 09:12:25;;;;;;;8.68;6.30;;;23.10;99.90;;;;;;5072698;28;20193;-70
2022/05/03 09:14:54;;;;;;;8.50;5.80;;;23.30;99.90;;;;;;5068366;28;20220;-70
2022/05/03 09:17:37;;;;;;;10.57;7.05;;;23.60;99.90;;;;;;5069231;28;20198;-70
2022/05/03 09:26:26;;;;;;;8.77;5.75;;;23.20;99.90;;;;;;5072107;28;20576;-69
2022/05/03 09:29:03;;;;;;;8.82;6.40;;;23.20;99.90;;;;;;5070458;28;20194;-69
2022/05/03 09:31:32;;;;;;;8.60;5.43;;;23.20;99.90;;;;;;5072432;28;20883;-71
2022/05/03 09:34:17;;;;;;;7.05;5.78;;;23.40;99.90;;;;;;5076517;28;20590;-68
2022/05/03 09:36:53;;;;;;;6.28;5.38;;;24.00;99.90;;;;;;5080399;28;20204;-66
2022/05/03 09:39:38;;;;;;;6.57;5.82;;;24.20;99.90;;;;;;5076928;28;20198;-67
2022/05/03 09:42:09;;;;;;;7.60;5.70;;;24.00;99.90;;;;;;5077617;28;20238;-67
2022/05/03 09:44:40;;;;;;;6.25;5.65;;;23.80;99.90;;;;;;5068848;28;20222;-69
2022/05/03 09:47:11;;;;;;;6.97;5.70;;;23.90;99.90;;;;;;5069012;28;20491;-69
2022/05/03 09:49:40;;;;;;;9.07;5.80;;;23.90;99.90;;;;;;5069791;28;20661;-68
2022/05/03 09:52:09;;;;;;;8.30;5.32;;;24.20;99.90;;;;;;5073715;28;20201;-68
2022/05/03 09:54:46;;;;;;;8.15;5.50;;;24.00;99.90;;;;;;5073711;28;20221;-67
2022/05/03 09:57:20;;;;;;;7.97;5.75;;;23.90;99.90;;;;;;5073346;28;20217;-69
2022/05/03 09:59:52;;;;;;;7.50;5.75;;;24.10;99.90;;;;;;5072302;28;20209;-70
2022/05/03 10:02:22;;;;;;;6.75;5.55;;;24.00;99.90;;;;;;5071472;28;20210;-68
2022/05/03 10:04:51;;;;;;;7.55;5.40;;;23.70;99.90;;;;;;5071507;28;20217;-66
2022/05/03 10:07:19;;;;;;;7.20;5.43;;;23.80;99.90;;;;;;5069908;28;20218;-69
2022/05/03 10:09:46;;;;;;;8.77;5.72;;;23.90;99.90;;;;;;5074990;28;20232;-70
2022/05/03 10:12:14;;;;;;;7.65;5.45;;;23.30;99.90;;;;;;5070499;28;20655;-69
2022/05/03 10:14:42;;;;;;;9.75;6.22;;;23.00;99.90;;;;;;5071577;28;20225;-69
2022/05/03 10:20:39;;;;;;;7.72;5.30;;;22.60;99.90;;;;;;5067571;28;20196;-70
2022/05/03 10:23:24;;;;;;;7.18;5.78;;;22.70;99.90;;;;;;5071032;28;20201;-69
2022/05/03 10:25:59;;;;;;;5.75;5.15;;;22.80;99.90;;;;;;5068192;28;20198;-69
2022/05/03 10:28:58;;;;;;;9.57;6.10;;;23.10;99.90;;;;;;5075368;28;20227;-69
2022/05/03 10:31:24;;;;;;;5.65;5.05;;;23.30;99.90;;;;;;5072354;28;20197;-69
2022/05/03 10:33:51;;;;;;;7.25;5.03;;;23.50;99.90;;;;;;5075058;28;20213;-69
2022/05/03 10:36:30;;;;;;;7.55;5.90;;;23.80;99.90;;;;;;5071267;28;20495;-67
2022/05/03 10:39:19;;;;;;;7.88;5.30;;;24.10;99.90;;;;;;5069314;28;20189;-66
2022/05/03 10:42:11;;;;;;;7.75;5.35;;;24.50;99.90;;;;;;5073196;28;20194;-68
2022/05/03 10:44:53;;;;;;;6.68;5.10;;;24.20;99.90;;;;;;5067440;28;20559;-68
2022/05/03 10:47:53;;;;;;;7.45;5.35;;;24.40;99.90;;;;;;5068743;28;20217;-69
2022/05/03 10:50:27;;;;;;;7.07;5.10;;;24.40;99.90;;;;;;5070241;28;20198;-68
2022/05/03 10:52:54;;;;;;;6.13;5.53;;;24.60;99.90;;;;;;5072955;28;20208;-68
2022/05/03 10:55:22;;;;;;;7.65;5.25;;;24.70;99.90;;;;;;5074992;28;20578;-68
2022/05/03 10:58:18;;;;;;;7.50;5.38;;;24.60;99.90;;;;;;5070006;28;20538;-68
2022/05/03 11:01:10;;;;;;;6.70;5.57;;;24.50;99.90;;;;;;5067594;28;20202;-68
2022/05/03 11:03:41;;;;;;;7.80;5.93;;;24.70;99.90;;;;;;5072156;28;20301;-70
2022/05/03 11:06:20;;;;;;;6.50;5.57;;;24.50;99.90;;;;;;5068895;28;20198;-69
2022/05/03 11:09:05;;;;;;;8.00;6.25;;;24.00;99.90;;;;;;5072264;28;20222;-68
2022/05/03 11:11:38;;;;;;;7.88;5.72;;;23.90;99.90;;;;;;5073740;28;20292;-69
2022/05/03 11:14:05;;;;;;;8.55;5.35;;;23.70;99.90;;;;;;5075914;28;20267;-67
2022/05/03 11:16:34;;;;;;;6.97;5.45;;;23.70;99.90;;;;;;5076467;28;20664;-68
2022/05/03 11:19:14;;;;;;;7.47;5.35;;;23.80;99.90;;;;;;5079388;28;20190;-70
2022/05/03 11:21:42;;;;;;;8.65;5.85;;;23.50;99.90;;;;;;5080231;28;20560;-69
2022/05/03 11:24:42;;;;;;;8.65;6.05;;;23.30;99.90;;;;;;5086059;28;20213;-71
2022/05/03 11:27:10;;;;;;;7.97;5.97;;;23.20;99.90;;;;;;5056036;28;20221;-70
2022/05/03 11:29:41;;;;;;;7.45;6.35;;;23.40;99.90;;;;;;5076871;28;20645;-69
2022/05/03 11:32:09;;;;;;;9.07;6.00;;;23.20;99.90;;;;;;5080496;28;20193;-69
2022/05/03 11:34:36;;;;;;;13.27;6.22;;;22.90;99.90;;;;;;5075646;28;20688;-67
2022/05/03 11:37:03;;;;;;;7.78;5.75;;;23.00;99.90;;;;;;5072227;28;20661;-68
2022/05/03 11:39:31;;;;;;;8.65;6.38;;;23.10;99.90;;;;;;5077735;28;20198;-69
2022/05/03 11:41:57;;;;;;;11.80;6.35;;;23.10;99.90;;;;;;5076580;28;20621;-66
2022/05/03 11:44:27;;;;;;;9.23;6.15;;;23.20;99.90;;;;;;5071528;28;20218;-67
2022/05/03 11:46:54;;;;;;;7.50;6.03;;;22.80;99.90;;;;;;5074312;28;20567;-67
2022/05/03 11:49:21;;;;;;;10.05;6.90;;;22.80;99.90;;;;;;5073126;28;20277;-67
2022/05/03 11:57:23;;;;;;;13.40;6.28;;;23.20;99.90;;;;;;5077256;28;20200;-68
2022/05/03 11:59:53;;;;;;;9.02;5.78;;;23.20;99.90;;;;;;5075414;28;20202;-66
2022/05/03 12:02:20;;;;;;;10.13;6.15;;;23.10;99.90;;;;;;5073530;28;20198;-67
2022/05/03 12:05:06;;;;;;;7.75;5.70;;;23.10;99.90;;;;;;5077631;28;20218;-66
2022/05/03 12:07:52;;;;;;;9.68;6.05;;;23.20;99.90;;;;;;5079366;28;20217;-70
2022/05/03 12:10:36;;;;;;;8.50;5.78;;;23.20;99.90;;;;;;5076757;28;20476;-68
2022/05/03 12:13:17;;;;;;;7.78;6.20;;;23.20;99.90;;;;;;5079512;28;20656;-68
2022/05/03 12:16:11;;;;;;;7.38;6.00;;;23.30;99.90;;;;;;5072922;28;20194;-67
2022/05/03 12:18:44;;;;;;;7.68;5.78;;;23.30;99.90;;;;;;5071347;28;20194;-68
2022/05/03 12:21:13;;;;;;;6.72;6.03;;;23.70;99.90;;;;;;5072560;28;20288;-67
2022/05/03 12:23:46;;;;;;;9.63;5.50;;;24.00;99.90;;;;;;5075733;28;20214;-68
2022/05/03 12:26:36;;;;;;;7.38;5.43;;;24.40;99.90;;;;;;5074811;28;20198;-67
2022/05/03 12:29:04;;;;;;;6.72;5.07;;;24.40;99.90;;;;;;5075550;28;20218;-66
2022/05/03 12:31:39;;;;;;;7.38;5.35;;;24.20;99.90;;;;;;5074028;28;20190;-67
2022/05/03 12:34:08;;;;;;;6.00;5.40;;;24.30;99.90;;;;;;5077415;28;20376;-69
2022/05/03 12:36:40;;;;;;;7.00;5.47;;;24.30;99.90;;;;;;5074157;28;20198;-67
2022/05/03 12:39:21;;;;;;;10.57;5.43;;;24.00;99.90;;;;;;5077735;28;20569;-68
2022/05/03 12:41:59;;;;;;;7.45;5.50;;;23.80;99.90;;;;;;5075664;28;20368;-69
2022/05/03 12:44:27;;;;;;;8.05;5.70;;;24.10;99.90;;;;;;5074351;28;20279;-68
2022/05/03 12:47:06;;;;;;;7.25;5.20;;;23.90;99.90;;;;;;5078506;28;20198;-68
2022/05/03 12:49:33;;;;;;;7.70;5.70;;;23.80;99.90;;;;;;5073414;28;20642;-67
2022/05/03 12:52:01;;;;;;;8.75;5.50;;;23.90;99.90;;;;;;5076599;28;20213;-67
2022/05/03 12:54:29;;;;;;;6.72;5.22;;;24.10;99.90;;;;;;5073474;28;20218;-67
2022/05/03 12:59:42;;;;;;;7.57;5.88;;;24.10;99.90;;;;;;5077316;28;20202;-68
2022/05/03 13:02:08;;;;;;;9.20;5.78;;;23.80;99.90;;;;;;5076899;28;20457;-68
2022/05/03 13:04:35;;;;;;;9.52;5.53;;;23.60;99.90;;;;;;5073570;28;20249;-68
2022/05/03 13:07:02;;;;;;;7.78;6.05;;;23.60;99.90;;;;;;5071616;28;20193;-67
2022/05/03 13:09:31;;;;;;;8.25;5.70;;;23.70;99.90;;;;;;5070288;28;20197;-70
2022/05/03 13:11:59;;;;;;;7.65;5.78;;;23.80;99.90;;;;;;5074547;28;20194;-68
2022/05/03 13:14:26;;;;;;;6.80;5.68;;;24.10;99.90;;;;;;5074417;28;20304;-68
2022/05/03 13:16:53;;;;;;;6.97;5.60;;;24.20;99.90;;;;;;5071014;28;20277;-68
2022/05/03 13:19:21;;;;;;;6.55;5.65;;;24.00;99.90;;;;;;5075943;28;21610;-68
2022/05/03 13:21:48;;;;;;;11.48;6.07;;;23.90;99.90;;;;;;5070591;28;20195;-67
2022/05/03 13:24:16;;;;;;;7.32;5.57;;;23.90;99.90;;;;;;5072715;28;20218;-66
2022/05/03 13:26:43;;;;;;;8.45;5.15;;;23.90;99.90;;;;;;5077463;28;20221;-68
2022/05/03 13:29:12;;;;;;;6.57;5.47;;;24.20;99.90;;;;;;5071619;28;20688;-68
2022/05/03 13:31:39;;;;;;;10.48;6.40;;;24.50;99.90;;;;;;5078351;28;20194;-68
2022/05/03 13:34:08;;;;;;;9.20;6.43;;;24.60;99.90;;;;;;5075913;28;20209;-68
2022/05/03 13:42:06;;;;;;;8.57;5.68;;;23.50;99.90;;;;;;5072376;28;20622;-68
2022/05/03 13:44:34;;;;;;;9.98;5.85;;;23.20;99.90;;;;;;5073272;28;20210;-70
2022/05/03 13:47:01;;;;;;;6.85;5.60;;;23.30;99.90;;;;;;5073449;28;20202;-69
2022/05/03 13:49:28;;;;;;;12.45;5.15;;;23.50;99.90;;;;;;5070814;28;20274;-69